Terminal Aerodrome Forecast
Issued by NWS Paducah, KY

Home | Current Version | Previous Version | Text Only | Print | Product List | Glossary On
Versions: 1 2 3 4 5 6 7 8 9 10 11 12
000
FTUS43 KPAH 211700
TAFPAH
TAF
KPAH 211735Z 2118/2218 24008KT P6SM -SHRA SCT030 BKN060
      TEMPO 2123/2203 5SM SHRA BR BKN030 BKN060
     FM220500 25008KT P6SM BKN035
     FM220800 32008KT P6SM BKN035=

USA.gov is the U.S. government's official web portal to all federal, state and local government web resources and services.